sensor_id;sensor_type;location;lat;lon;timestamp;P1;durP1;ratioP1;P2;durP2;ratioP2
26858;SDS011;14429;48.346;16.338;2023-06-04T00:00:10;2.08;;;1.25;;
26858;SDS011;14429;48.346;16.338;2023-06-04T00:02:37;1.50;;;1.15;;
26858;SDS011;14429;48.346;16.338;2023-06-04T00:05:03;2.15;;;1.40;;
26858;SDS011;14429;48.346;16.338;2023-06-04T00:07:29;1.52;;;1.00;;
26858;SDS011;14429;48.346;16.338;2023-06-04T00:09:55;2.35;;;1.38;;
26858;SDS011;14429;48.346;16.338;2023-06-04T00:12:20;1.20;;;1.08;;
26858;SDS011;14429;48.346;16.338;2023-06-04T00:14:45;2.63;;;1.20;;
26858;SDS011;14429;48.346;16.338;2023-06-04T00:17:11;4.55;;;1.33;;
26858;SDS011;14429;48.346;16.338;2023-06-04T00:19:39;1.73;;;1.25;;
26858;SDS011;14429;48.346;16.338;2023-06-04T00:22:04;1.83;;;1.52;;
26858;SDS011;14429;48.346;16.338;2023-06-04T00:24:30;2.15;;;1.20;;
26858;SDS011;14429;48.346;16.338;2023-06-04T00:26:55;1.13;;;1.00;;
26858;SDS011;14429;48.346;16.338;2023-06-04T00:29:21;1.27;;;1.08;;
26858;SDS011;14429;48.346;16.338;2023-06-04T00:31:46;1.75;;;1.27;;
26858;SDS011;14429;48.346;16.338;2023-06-04T00:34:12;2.47;;;1.30;;
26858;SDS011;14429;48.346;16.338;2023-06-04T00:36:39;3.42;;;1.20;;
26858;SDS011;14429;48.346;16.338;2023-06-04T00:39:04;2.63;;;1.33;;
26858;SDS011;14429;48.346;16.338;2023-06-04T00:41:30;2.22;;;1.35;;
26858;SDS011;14429;48.346;16.338;2023-06-04T00:43:55;1.85;;;1.42;;
26858;SDS011;14429;48.346;16.338;2023-06-04T00:46:21;1.20;;;1.10;;
26858;SDS011;14429;48.346;16.338;2023-06-04T00:48:46;1.33;;;1.20;;
26858;SDS011;14429;48.346;16.338;2023-06-04T00:51:12;2.95;;;1.58;;
26858;SDS011;14429;48.346;16.338;2023-06-04T00:53:39;1.55;;;1.10;;
26858;SDS011;14429;48.346;16.338;2023-06-04T00:56:05;1.98;;;1.40;;
26858;SDS011;14429;48.346;16.338;2023-06-04T00:58:32;1.50;;;1.40;;
26858;SDS011;14429;48.346;16.338;2023-06-04T01:00:59;1.80;;;1.10;;
26858;SDS011;14429;48.346;16.338;2023-06-04T01:03:29;2.75;;;1.27;;
26858;SDS011;14429;48.346;16.338;2023-06-04T01:06:02;1.92;;;1.40;;
26858;SDS011;14429;48.346;16.338;2023-06-04T01:08:33;1.25;;;1.05;;
26858;SDS011;14429;48.346;16.338;2023-06-04T01:11:01;1.35;;;1.15;;
26858;SDS011;14429;48.346;16.338;2023-06-04T01:13:27;1.65;;;1.40;;
26858;SDS011;14429;48.346;16.338;2023-06-04T01:15:52;1.08;;;0.95;;
26858;SDS011;14429;48.346;16.338;2023-06-04T01:18:19;1.85;;;1.30;;
26858;SDS011;14429;48.346;16.338;2023-06-04T01:20:46;1.38;;;1.17;;
26858;SDS011;14429;48.346;16.338;2023-06-04T01:23:25;1.50;;;1.40;;
26858;SDS011;14429;48.346;16.338;2023-06-04T01:25:57;3.55;;;1.30;;
26858;SDS011;14429;48.346;16.338;2023-06-04T01:28:24;2.70;;;1.30;;
26858;SDS011;14429;48.346;16.338;2023-06-04T01:30:50;1.45;;;1.00;;
26858;SDS011;14429;48.346;16.338;2023-06-04T01:33:17;1.98;;;1.15;;
26858;SDS011;14429;48.346;16.338;2023-06-04T01:35:47;1.67;;;1.20;;
26858;SDS011;14429;48.346;16.338;2023-06-04T01:38:13;1.25;;;0.93;;
26858;SDS011;14429;48.346;16.338;2023-06-04T01:40:39;1.42;;;1.02;;
26858;SDS011;14429;48.346;16.338;2023-06-04T01:43:04;1.88;;;1.30;;
26858;SDS011;14429;48.346;16.338;2023-06-04T01:45:31;2.53;;;1.27;;
26858;SDS011;14429;48.346;16.338;2023-06-04T01:47:56;1.58;;;1.20;;
26858;SDS011;14429;48.346;16.338;2023-06-04T01:50:21;1.17;;;1.08;;
26858;SDS011;14429;48.346;16.338;2023-06-04T01:52:47;1.35;;;1.20;;
26858;SDS011;14429;48.346;16.338;2023-06-04T01:55:13;2.00;;;1.27;;
26858;SDS011;14429;48.346;16.338;2023-06-04T01:57:40;1.92;;;1.20;;
26858;SDS011;14429;48.346;16.338;2023-06-04T02:00:07;2.25;;;1.00;;
26858;SDS011;14429;48.346;16.338;2023-06-04T02:02:36;2.42;;;1.10;;
26858;SDS011;14429;48.346;16.338;2023-06-04T02:05:01;1.50;;;1.23;;
26858;SDS011;14429;48.346;16.338;2023-06-04T02:07:27;1.25;;;1.05;;
26858;SDS011;14429;48.346;16.338;2023-06-04T02:09:52;2.20;;;1.40;;
26858;SDS011;14429;48.346;16.338;2023-06-04T02:12:18;2.63;;;1.30;;
26858;SDS011;14429;48.346;16.338;2023-06-04T02:14:43;2.10;;;1.10;;
26858;SDS011;14429;48.346;16.338;2023-06-04T02:17:09;1.77;;;1.30;;
26858;SDS011;14429;48.346;16.338;2023-06-04T02:19:36;1.65;;;1.38;;
26858;SDS011;14429;48.346;16.338;2023-06-04T02:22:01;1.48;;;1.20;;
26858;SDS011;14429;48.346;16.338;2023-06-04T02:24:26;2.15;;;1.27;;
26858;SDS011;14429;48.346;16.338;2023-06-04T02:26:55;1.23;;;1.10;;
26858;SDS011;14429;48.346;16.338;2023-06-04T02:29:20;1.20;;;1.10;;
26858;SDS011;14429;48.346;16.338;2023-06-04T02:31:45;1.63;;;1.30;;
26858;SDS011;14429;48.346;16.338;2023-06-04T02:34:11;2.50;;;1.55;;
26858;SDS011;14429;48.346;16.338;2023-06-04T02:36:37;1.50;;;1.25;;
26858;SDS011;14429;48.346;16.338;2023-06-04T02:39:03;1.95;;;1.38;;
26858;SDS011;14429;48.346;16.338;2023-06-04T02:41:28;1.73;;;1.08;;
26858;SDS011;14429;48.346;16.338;2023-06-04T02:43:54;1.92;;;1.33;;
26858;SDS011;14429;48.346;16.338;2023-06-04T02:46:19;2.10;;;1.40;;
26858;SDS011;14429;48.346;16.338;2023-06-04T02:48:44;1.45;;;1.08;;
26858;SDS011;14429;48.346;16.338;2023-06-04T02:51:10;2.20;;;1.35;;
26858;SDS011;14429;48.346;16.338;2023-06-04T02:53:36;1.98;;;1.38;;
26858;SDS011;14429;48.346;16.338;2023-06-04T02:56:02;2.70;;;1.70;;
26858;SDS011;14429;48.346;16.338;2023-06-04T02:58:28;2.28;;;1.05;;
26858;SDS011;14429;48.346;16.338;2023-06-04T03:00:53;2.33;;;1.45;;
26858;SDS011;14429;48.346;16.338;2023-06-04T03:03:18;1.48;;;1.15;;
26858;SDS011;14429;48.346;16.338;2023-06-04T03:05:44;1.73;;;1.20;;
26858;SDS011;14429;48.346;16.338;2023-06-04T03:08:09;1.00;;;1.00;;
26858;SDS011;14429;48.346;16.338;2023-06-04T03:10:36;2.20;;;1.08;;
26858;SDS011;14429;48.346;16.338;2023-06-04T03:13:01;0.98;;;0.88;;
26858;SDS011;14429;48.346;16.338;2023-06-04T03:15:28;2.92;;;1.50;;
26858;SDS011;14429;48.346;16.338;2023-06-04T03:17:53;2.60;;;1.33;;
26858;SDS011;14429;48.346;16.338;2023-06-04T03:20:18;1.40;;;1.00;;
26858;SDS011;14429;48.346;16.338;2023-06-04T03:22:44;1.30;;;1.20;;
26858;SDS011;14429;48.346;16.338;2023-06-04T03:25:09;1.52;;;1.10;;
26858;SDS011;14429;48.346;16.338;2023-06-04T03:27:36;2.05;;;1.15;;
26858;SDS011;14429;48.346;16.338;2023-06-04T03:30:02;1.88;;;1.27;;
26858;SDS011;14429;48.346;16.338;2023-06-04T03:32:28;1.10;;;0.90;;
26858;SDS011;14429;48.346;16.338;2023-06-04T03:34:53;1.17;;;0.98;;
26858;SDS011;14429;48.346;16.338;2023-06-04T03:37:19;1.35;;;1.00;;
26858;SDS011;14429;48.346;16.338;2023-06-04T03:39:44;1.17;;;1.00;;
26858;SDS011;14429;48.346;16.338;2023-06-04T03:42:09;2.03;;;1.23;;
26858;SDS011;14429;48.346;16.338;2023-06-04T03:44:36;2.90;;;1.30;;
26858;SDS011;14429;48.346;16.338;2023-06-04T03:47:02;1.50;;;1.20;;
26858;SDS011;14429;48.346;16.338;2023-06-04T03:49:27;2.35;;;1.40;;
26858;SDS011;14429;48.346;16.338;2023-06-04T03:51:53;1.77;;;1.30;;
26858;SDS011;14429;48.346;16.338;2023-06-04T03:54:18;1.10;;;1.00;;
26858;SDS011;14429;48.346;16.338;2023-06-04T03:56:44;2.03;;;1.10;;
26858;SDS011;14429;48.346;16.338;2023-06-04T03:59:09;2.88;;;1.60;;
26858;SDS011;14429;48.346;16.338;2023-06-04T04:01:36;1.10;;;1.00;;
26858;SDS011;14429;48.346;16.338;2023-06-04T04:04:02;1.60;;;1.17;;
26858;SDS011;14429;48.346;16.338;2023-06-04T04:06:27;1.98;;;1.10;;
26858;SDS011;14429;48.346;16.338;2023-06-04T04:08:53;1.38;;;1.10;;
26858;SDS011;14429;48.346;16.338;2023-06-04T04:11:18;1.42;;;1.30;;
26858;SDS011;14429;48.346;16.338;2023-06-04T04:13:44;1.60;;;1.08;;
26858;SDS011;14429;48.346;16.338;2023-06-04T04:16:10;1.42;;;1.20;;
26858;SDS011;14429;48.346;16.338;2023-06-04T04:18:37;1.13;;;0.80;;
26858;SDS011;14429;48.346;16.338;2023-06-04T04:21:02;3.28;;;1.42;;
26858;SDS011;14429;48.346;16.338;2023-06-04T04:23:29;1.70;;;1.10;;
26858;SDS011;14429;48.346;16.338;2023-06-04T04:25:55;1.35;;;1.15;;
26858;SDS011;14429;48.346;16.338;2023-06-04T04:28:21;1.63;;;1.33;;
26858;SDS011;14429;48.346;16.338;2023-06-04T04:30:46;3.28;;;1.50;;
26858;SDS011;14429;48.346;16.338;2023-06-04T04:33:12;2.17;;;1.27;;
26858;SDS011;14429;48.346;16.338;2023-06-04T04:35:39;2.10;;;1.30;;
26858;SDS011;14429;48.346;16.338;2023-06-04T04:38:04;2.63;;;1.20;;
26858;SDS011;14429;48.346;16.338;2023-06-04T04:40:30;1.50;;;1.25;;
26858;SDS011;14429;48.346;16.338;2023-06-04T04:42:55;0.90;;;0.90;;
26858;SDS011;14429;48.346;16.338;2023-06-04T04:45:21;2.28;;;1.48;;
26858;SDS011;14429;48.346;16.338;2023-06-04T04:47:47;2.15;;;0.95;;
26858;SDS011;14429;48.346;16.338;2023-06-04T04:50:12;1.13;;;1.02;;
26858;SDS011;14429;48.346;16.338;2023-06-04T04:52:39;2.10;;;1.10;;
26858;SDS011;14429;48.346;16.338;2023-06-04T04:55:05;5.32;;;1.70;;
26858;SDS011;14429;48.346;16.338;2023-06-04T04:57:31;3.30;;;1.73;;
26858;SDS011;14429;48.346;16.338;2023-06-04T04:59:57;3.17;;;1.38;;
26858;SDS011;14429;48.346;16.338;2023-06-04T05:02:22;2.33;;;1.27;;
26858;SDS011;14429;48.346;16.338;2023-06-04T05:04:47;2.42;;;1.30;;
26858;SDS011;14429;48.346;16.338;2023-06-04T05:07:13;1.02;;;0.95;;
26858;SDS011;14429;48.346;16.338;2023-06-04T05:09:40;2.58;;;1.05;;
26858;SDS011;14429;48.346;16.338;2023-06-04T05:12:05;1.25;;;0.98;;
26858;SDS011;14429;48.346;16.338;2023-06-04T05:14:31;1.20;;;1.10;;
26858;SDS011;14429;48.346;16.338;2023-06-04T05:16:56;2.20;;;1.20;;
26858;SDS011;14429;48.346;16.338;2023-06-04T05:19:21;1.30;;;1.10;;
26858;SDS011;14429;48.346;16.338;2023-06-04T05:21:47;2.65;;;1.38;;
26858;SDS011;14429;48.346;16.338;2023-06-04T05:24:12;1.70;;;1.20;;
26858;SDS011;14429;48.346;16.338;2023-06-04T05:26:39;3.08;;;1.95;;
26858;SDS011;14429;48.346;16.338;2023-06-04T05:29:05;2.33;;;1.10;;
26858;SDS011;14429;48.346;16.338;2023-06-04T05:31:30;1.65;;;1.13;;
26858;SDS011;14429;48.346;16.338;2023-06-04T05:33:56;1.60;;;1.25;;
26858;SDS011;14429;48.346;16.338;2023-06-04T05:36:21;2.30;;;1.33;;
26858;SDS011;14429;48.346;16.338;2023-06-04T05:38:46;1.90;;;1.30;;
26858;SDS011;14429;48.346;16.338;2023-06-04T05:41:12;3.30;;;1.83;;
26858;SDS011;14429;48.346;16.338;2023-06-04T05:43:41;2.03;;;1.05;;
26858;SDS011;14429;48.346;16.338;2023-06-04T05:46:06;2.03;;;1.13;;
26858;SDS011;14429;48.346;16.338;2023-06-04T05:48:31;2.97;;;1.15;;
26858;SDS011;14429;48.346;16.338;2023-06-04T05:50:57;3.50;;;1.40;;
26858;SDS011;14429;48.346;16.338;2023-06-04T05:53:22;1.73;;;1.45;;
26858;SDS011;14429;48.346;16.338;2023-06-04T05:55:48;1.67;;;1.10;;
26858;SDS011;14429;48.346;16.338;2023-06-04T05:58:13;2.85;;;1.52;;
26858;SDS011;14429;48.346;16.338;2023-06-04T06:00:40;6.32;;;1.40;;
26858;SDS011;14429;48.346;16.338;2023-06-04T06:03:05;2.90;;;1.50;;
26858;SDS011;14429;48.346;16.338;2023-06-04T06:05:31;1.98;;;1.20;;
26858;SDS011;14429;48.346;16.338;2023-06-04T06:07:56;2.17;;;1.00;;
26858;SDS011;14429;48.346;16.338;2023-06-04T06:10:22;2.55;;;1.02;;
26858;SDS011;14429;48.346;16.338;2023-06-04T06:12:47;3.97;;;2.08;;
26858;SDS011;14429;48.346;16.338;2023-06-04T06:15:12;3.83;;;1.10;;
26858;SDS011;14429;48.346;16.338;2023-06-04T06:17:39;1.50;;;1.10;;
26858;SDS011;14429;48.346;16.338;2023-06-04T06:20:05;1.33;;;1.13;;
26858;SDS011;14429;48.346;16.338;2023-06-04T06:22:31;2.67;;;1.30;;
26858;SDS011;14429;48.346;16.338;2023-06-04T06:24:57;1.33;;;0.82;;
26858;SDS011;14429;48.346;16.338;2023-06-04T06:27:22;2.83;;;1.15;;
26858;SDS011;14429;48.346;16.338;2023-06-04T06:29:47;3.95;;;1.40;;
26858;SDS011;14429;48.346;16.338;2023-06-04T06:32:13;2.05;;;1.38;;
26858;SDS011;14429;48.346;16.338;2023-06-04T06:34:40;1.20;;;1.10;;
26858;SDS011;14429;48.346;16.338;2023-06-04T06:37:06;1.67;;;1.20;;
26858;SDS011;14429;48.346;16.338;2023-06-04T06:39:31;2.60;;;1.70;;
26858;SDS011;14429;48.346;16.338;2023-06-04T06:41:58;3.45;;;1.90;;
26858;SDS011;14429;48.346;16.338;2023-06-04T06:44:23;2.72;;;1.88;;
26858;SDS011;14429;48.346;16.338;2023-06-04T06:46:49;2.25;;;1.90;;
26858;SDS011;14429;48.346;16.338;2023-06-04T06:49:14;6.43;;;2.35;;
26858;SDS011;14429;48.346;16.338;2023-06-04T06:51:41;5.97;;;1.42;;
26858;SDS011;14429;48.346;16.338;2023-06-04T06:54:08;2.85;;;1.80;;
26858;SDS011;14429;48.346;16.338;2023-06-04T06:56:33;1.70;;;1.35;;
26858;SDS011;14429;48.346;16.338;2023-06-04T06:58:59;2.70;;;1.52;;
26858;SDS011;14429;48.346;16.338;2023-06-04T07:01:24;3.92;;;1.77;;
26858;SDS011;14429;48.346;16.338;2023-06-04T07:03:50;2.50;;;1.50;;
26858;SDS011;14429;48.346;16.338;2023-06-04T07:06:15;4.82;;;2.15;;
26858;SDS011;14429;48.346;16.338;2023-06-04T07:08:42;2.92;;;1.65;;
26858;SDS011;14429;48.346;16.338;2023-06-04T07:11:08;8.13;;;2.20;;
26858;SDS011;14429;48.346;16.338;2023-06-04T07:13:33;3.80;;;2.60;;
26858;SDS011;14429;48.346;16.338;2023-06-04T07:15:58;10.50;;;2.03;;
26858;SDS011;14429;48.346;16.338;2023-06-04T07:18:24;2.75;;;1.83;;
26858;SDS011;14429;48.346;16.338;2023-06-04T07:20:49;4.72;;;1.90;;
26858;SDS011;14429;48.346;16.338;2023-06-04T07:23:15;3.78;;;2.08;;
26858;SDS011;14429;48.346;16.338;2023-06-04T07:25:42;1.83;;;1.17;;
26858;SDS011;14429;48.346;16.338;2023-06-04T07:28:07;3.40;;;2.00;;
26858;SDS011;14429;48.346;16.338;2023-06-04T07:30:33;4.70;;;1.75;;
26858;SDS011;14429;48.346;16.338;2023-06-04T07:32:58;6.05;;;1.80;;
26858;SDS011;14429;48.346;16.338;2023-06-04T07:35:23;5.57;;;1.75;;
26858;SDS011;14429;48.346;16.338;2023-06-04T07:37:49;4.82;;;2.13;;
26858;SDS011;14429;48.346;16.338;2023-06-04T07:40:15;2.38;;;1.88;;
26858;SDS011;14429;48.346;16.338;2023-06-04T07:42:42;2.45;;;1.75;;
26858;SDS011;14429;48.346;16.338;2023-06-04T07:45:08;2.22;;;1.73;;
26858;SDS011;14429;48.346;16.338;2023-06-04T07:47:34;4.88;;;1.90;;
26858;SDS011;14429;48.346;16.338;2023-06-04T07:50:00;4.43;;;1.77;;
26858;SDS011;14429;48.346;16.338;2023-06-04T07:52:25;5.05;;;1.52;;
26858;SDS011;14429;48.346;16.338;2023-06-04T07:54:51;4.53;;;1.98;;
26858;SDS011;14429;48.346;16.338;2023-06-04T07:57:16;2.35;;;1.70;;
26858;SDS011;14429;48.346;16.338;2023-06-04T07:59:43;3.33;;;1.95;;
26858;SDS011;14429;48.346;16.338;2023-06-04T08:02:09;5.28;;;2.50;;
26858;SDS011;14429;48.346;16.338;2023-06-04T08:04:34;5.70;;;2.83;;
26858;SDS011;14429;48.346;16.338;2023-06-04T08:06:59;2.78;;;1.88;;
26858;SDS011;14429;48.346;16.338;2023-06-04T08:09:25;2.67;;;1.77;;
26858;SDS011;14429;48.346;16.338;2023-06-04T08:11:50;2.65;;;1.25;;
26858;SDS011;14429;48.346;16.338;2023-06-04T08:14:16;2.17;;;1.45;;
26858;SDS011;14429;48.346;16.338;2023-06-04T08:16:42;4.20;;;2.10;;
26858;SDS011;14429;48.346;16.338;2023-06-04T08:19:08;5.70;;;2.63;;
26858;SDS011;14429;48.346;16.338;2023-06-04T08:21:33;4.38;;;2.47;;
26858;SDS011;14429;48.346;16.338;2023-06-04T08:23:59;7.00;;;2.72;;
26858;SDS011;14429;48.346;16.338;2023-06-04T08:26:24;5.88;;;1.75;;
26858;SDS011;14429;48.346;16.338;2023-06-04T08:28:50;3.03;;;1.75;;
26858;SDS011;14429;48.346;16.338;2023-06-04T08:31:15;4.22;;;2.33;;
26858;SDS011;14429;48.346;16.338;2023-06-04T08:33:42;8.63;;;1.55;;
26858;SDS011;14429;48.346;16.338;2023-06-04T08:36:09;2.00;;;1.60;;
26858;SDS011;14429;48.346;16.338;2023-06-04T08:38:35;3.13;;;1.52;;
26858;SDS011;14429;48.346;16.338;2023-06-04T08:41:01;1.63;;;1.25;;
26858;SDS011;14429;48.346;16.338;2023-06-04T08:43:35;2.47;;;1.70;;
26858;SDS011;14429;48.346;16.338;2023-06-04T08:46:03;2.17;;;1.30;;
26858;SDS011;14429;48.346;16.338;2023-06-04T08:48:30;3.15;;;1.80;;
26858;SDS011;14429;48.346;16.338;2023-06-04T08:50:57;2.60;;;1.98;;
26858;SDS011;14429;48.346;16.338;2023-06-04T08:53:26;5.32;;;1.92;;
26858;SDS011;14429;48.346;16.338;2023-06-04T08:55:52;5.32;;;1.73;;
26858;SDS011;14429;48.346;16.338;2023-06-04T08:58:18;5.68;;;2.05;;
26858;SDS011;14429;48.346;16.338;2023-06-04T09:00:45;3.70;;;2.10;;
26858;SDS011;14429;48.346;16.338;2023-06-04T09:03:10;2.45;;;1.75;;
26858;SDS011;14429;48.346;16.338;2023-06-04T09:05:38;7.28;;;2.47;;
26858;SDS011;14429;48.346;16.338;2023-06-04T09:08:05;3.55;;;2.20;;
26858;SDS011;14429;48.346;16.338;2023-06-04T09:10:36;7.43;;;2.13;;
26858;SDS011;14429;48.346;16.338;2023-06-04T09:13:03;3.83;;;1.52;;
26858;SDS011;14429;48.346;16.338;2023-06-04T09:15:31;12.60;;;2.10;;
26858;SDS011;14429;48.346;16.338;2023-06-04T09:17:57;4.35;;;2.40;;
26858;SDS011;14429;48.346;16.338;2023-06-04T09:20:22;1.83;;;1.45;;
26858;SDS011;14429;48.346;16.338;2023-06-04T09:22:49;3.75;;;2.03;;
26858;SDS011;14429;48.346;16.338;2023-06-04T09:25:22;2.92;;;2.00;;
26858;SDS011;14429;48.346;16.338;2023-06-04T09:27:49;2.40;;;1.67;;
26858;SDS011;14429;48.346;16.338;2023-06-04T09:30:14;3.88;;;2.00;;
26858;SDS011;14429;48.346;16.338;2023-06-04T09:32:39;3.65;;;2.10;;
26858;SDS011;14429;48.346;16.338;2023-06-04T09:35:08;5.15;;;2.10;;
26858;SDS011;14429;48.346;16.338;2023-06-04T09:37:35;3.13;;;1.95;;
26858;SDS011;14429;48.346;16.338;2023-06-04T09:40:00;2.78;;;1.85;;
26858;SDS011;14429;48.346;16.338;2023-06-04T09:42:27;2.88;;;2.13;;
26858;SDS011;14429;48.346;16.338;2023-06-04T09:44:53;5.30;;;2.45;;
26858;SDS011;14429;48.346;16.338;2023-06-04T09:47:18;2.42;;;1.77;;
26858;SDS011;14429;48.346;16.338;2023-06-04T09:49:44;2.50;;;1.50;;
26858;SDS011;14429;48.346;16.338;2023-06-04T09:52:11;7.70;;;2.45;;
26858;SDS011;14429;48.346;16.338;2023-06-04T09:54:37;3.70;;;2.17;;
26858;SDS011;14429;48.346;16.338;2023-06-04T09:57:03;9.52;;;2.05;;
26858;SDS011;14429;48.346;16.338;2023-06-04T09:59:31;2.35;;;1.95;;
26858;SDS011;14429;48.346;16.338;2023-06-04T10:02:03;3.10;;;2.20;;
26858;SDS011;14429;48.346;16.338;2023-06-04T10:04:31;3.88;;;2.20;;
26858;SDS011;14429;48.346;16.338;2023-06-04T10:06:59;4.63;;;2.35;;
26858;SDS011;14429;48.346;16.338;2023-06-04T10:09:27;8.48;;;1.92;;
26858;SDS011;14429;48.346;16.338;2023-06-04T10:11:56;4.63;;;2.40;;
26858;SDS011;14429;48.346;16.338;2023-06-04T10:14:25;4.82;;;2.30;;
26858;SDS011;14429;48.346;16.338;2023-06-04T10:16:58;4.63;;;2.38;;
26858;SDS011;14429;48.346;16.338;2023-06-04T10:19:24;4.90;;;2.40;;
26858;SDS011;14429;48.346;16.338;2023-06-04T10:21:51;5.20;;;2.45;;
26858;SDS011;14429;48.346;16.338;2023-06-04T10:24:17;4.78;;;2.25;;
26858;SDS011;14429;48.346;16.338;2023-06-04T10:26:43;2.97;;;2.13;;
26858;SDS011;14429;48.346;16.338;2023-06-04T10:29:09;3.03;;;2.10;;
26858;SDS011;14429;48.346;16.338;2023-06-04T10:31:36;4.60;;;2.10;;
26858;SDS011;14429;48.346;16.338;2023-06-04T10:34:03;3.90;;;1.95;;
26858;SDS011;14429;48.346;16.338;2023-06-04T10:36:29;3.60;;;2.03;;
26858;SDS011;14429;48.346;16.338;2023-06-04T10:38:54;5.80;;;1.85;;
26858;SDS011;14429;48.346;16.338;2023-06-04T10:41:21;4.93;;;2.28;;
26858;SDS011;14429;48.346;16.338;2023-06-04T10:43:47;2.83;;;1.65;;
26858;SDS011;14429;48.346;16.338;2023-06-04T10:46:13;9.75;;;2.17;;
26858;SDS011;14429;48.346;16.338;2023-06-04T10:48:45;3.03;;;1.85;;
26858;SDS011;14429;48.346;16.338;2023-06-04T10:51:12;4.10;;;2.28;;
26858;SDS011;14429;48.346;16.338;2023-06-04T10:53:38;4.65;;;2.17;;
26858;SDS011;14429;48.346;16.338;2023-06-04T10:56:03;4.00;;;2.22;;
26858;SDS011;14429;48.346;16.338;2023-06-04T10:58:31;3.13;;;2.10;;
26858;SDS011;14429;48.346;16.338;2023-06-04T11:00:57;5.93;;;2.10;;
26858;SDS011;14429;48.346;16.338;2023-06-04T11:03:22;2.72;;;1.63;;
26858;SDS011;14429;48.346;16.338;2023-06-04T11:05:47;4.57;;;2.05;;
26858;SDS011;14429;48.346;16.338;2023-06-04T11:08:14;4.00;;;2.78;;
26858;SDS011;14429;48.346;16.338;2023-06-04T11:10:50;8.55;;;2.47;;
26858;SDS011;14429;48.346;16.338;2023-06-04T11:13:26;4.45;;;2.50;;
26858;SDS011;14429;48.346;16.338;2023-06-04T11:15:51;4.93;;;2.17;;
26858;SDS011;14429;48.346;16.338;2023-06-04T11:18:17;3.55;;;1.70;;
26858;SDS011;14429;48.346;16.338;2023-06-04T11:20:45;3.00;;;2.08;;
26858;SDS011;14429;48.346;16.338;2023-06-04T11:23:12;2.75;;;1.60;;
26858;SDS011;14429;48.346;16.338;2023-06-04T11:25:38;4.75;;;2.03;;
26858;SDS011;14429;48.346;16.338;2023-06-04T11:28:04;2.45;;;1.73;;
26858;SDS011;14429;48.346;16.338;2023-06-04T11:30:31;1.98;;;1.45;;
26858;SDS011;14429;48.346;16.338;2023-06-04T11:33:01;3.78;;;1.95;;
26858;SDS011;14429;48.346;16.338;2023-06-04T11:35:28;4.20;;;1.98;;
26858;SDS011;14429;48.346;16.338;2023-06-04T11:37:54;3.38;;;1.95;;
26858;SDS011;14429;48.346;16.338;2023-06-04T11:40:21;8.35;;;2.53;;
26858;SDS011;14429;48.346;16.338;2023-06-04T11:42:46;3.40;;;1.90;;
26858;SDS011;14429;48.346;16.338;2023-06-04T11:45:13;3.22;;;1.77;;
26858;SDS011;14429;48.346;16.338;2023-06-04T11:47:41;2.42;;;1.75;;
26858;SDS011;14429;48.346;16.338;2023-06-04T11:50:09;3.20;;;2.03;;
26858;SDS011;14429;48.346;16.338;2023-06-04T11:52:36;7.10;;;3.30;;
26858;SDS011;14429;48.346;16.338;2023-06-04T11:55:02;9.05;;;2.33;;
26858;SDS011;14429;48.346;16.338;2023-06-04T11:57:28;4.72;;;2.35;;
26858;SDS011;14429;48.346;16.338;2023-06-04T11:59:54;3.88;;;1.98;;
26858;SDS011;14429;48.346;16.338;2023-06-04T12:02:20;4.00;;;1.70;;
26858;SDS011;14429;48.346;16.338;2023-06-04T12:04:47;2.72;;;1.88;;
26858;SDS011;14429;48.346;16.338;2023-06-04T12:07:18;5.15;;;1.95;;
26858;SDS011;14429;48.346;16.338;2023-06-04T12:09:45;6.63;;;1.95;;
26858;SDS011;14429;48.346;16.338;2023-06-04T12:12:10;3.10;;;1.67;;
26858;SDS011;14429;48.346;16.338;2023-06-04T12:14:36;4.60;;;2.05;;
26858;SDS011;14429;48.346;16.338;2023-06-04T12:17:02;8.35;;;2.10;;
26858;SDS011;14429;48.346;16.338;2023-06-04T12:19:30;4.88;;;2.42;;
26858;SDS011;14429;48.346;16.338;2023-06-04T12:22:00;6.72;;;2.30;;
26858;SDS011;14429;48.346;16.338;2023-06-04T12:24:27;5.63;;;2.35;;
26858;SDS011;14429;48.346;16.338;2023-06-04T12:27:00;4.07;;;2.40;;
26858;SDS011;14429;48.346;16.338;2023-06-04T12:29:27;4.77;;;2.67;;
26858;SDS011;14429;48.346;16.338;2023-06-04T12:32:00;2.97;;;2.10;;
26858;SDS011;14429;48.346;16.338;2023-06-04T12:34:27;7.32;;;3.17;;
26858;SDS011;14429;48.346;16.338;2023-06-04T12:36:53;3.97;;;2.28;;
26858;SDS011;14429;48.346;16.338;2023-06-04T12:39:20;6.38;;;2.42;;
26858;SDS011;14429;48.346;16.338;2023-06-04T12:41:45;3.55;;;1.98;;
26858;SDS011;14429;48.346;16.338;2023-06-04T12:44:11;4.70;;;2.38;;
26858;SDS011;14429;48.346;16.338;2023-06-04T12:46:36;4.60;;;2.70;;
26858;SDS011;14429;48.346;16.338;2023-06-04T12:49:02;5.03;;;1.77;;
26858;SDS011;14429;48.346;16.338;2023-06-04T12:51:27;3.63;;;2.22;;
26858;SDS011;14429;48.346;16.338;2023-06-04T12:53:53;2.33;;;1.80;;
26858;SDS011;14429;48.346;16.338;2023-06-04T12:56:19;3.55;;;2.30;;
26858;SDS011;14429;48.346;16.338;2023-06-04T12:58:45;3.65;;;2.42;;
26858;SDS011;14429;48.346;16.338;2023-06-04T13:01:10;3.97;;;2.30;;
26858;SDS011;14429;48.346;16.338;2023-06-04T13:03:36;8.27;;;2.88;;
26858;SDS011;14429;48.346;16.338;2023-06-04T13:06:02;3.05;;;2.17;;
26858;SDS011;14429;48.346;16.338;2023-06-04T13:08:28;3.92;;;2.20;;
26858;SDS011;14429;48.346;16.338;2023-06-04T13:10:53;5.05;;;2.60;;
26858;SDS011;14429;48.346;16.338;2023-06-04T13:13:20;6.53;;;2.35;;
26858;SDS011;14429;48.346;16.338;2023-06-04T13:15:45;6.60;;;2.28;;
26858;SDS011;14429;48.346;16.338;2023-06-04T13:18:11;6.45;;;2.58;;
26858;SDS011;14429;48.346;16.338;2023-06-04T13:20:37;4.07;;;2.53;;
26858;SDS011;14429;48.346;16.338;2023-06-04T13:23:04;7.47;;;2.67;;
26858;SDS011;14429;48.346;16.338;2023-06-04T13:25:30;2.90;;;1.98;;
26858;SDS011;14429;48.346;16.338;2023-06-04T13:27:55;6.00;;;2.55;;
26858;SDS011;14429;48.346;16.338;2023-06-04T13:30:22;4.68;;;1.90;;
26858;SDS011;14429;48.346;16.338;2023-06-04T13:32:48;4.75;;;2.10;;
26858;SDS011;14429;48.346;16.338;2023-06-04T13:35:13;6.68;;;2.70;;
26858;SDS011;14429;48.346;16.338;2023-06-04T13:37:39;3.92;;;2.80;;
26858;SDS011;14429;48.346;16.338;2023-06-04T13:40:05;5.80;;;2.45;;
26858;SDS011;14429;48.346;16.338;2023-06-04T13:42:31;2.45;;;2.03;;
26858;SDS011;14429;48.346;16.338;2023-06-04T13:44:57;3.05;;;2.00;;
26858;SDS011;14429;48.346;16.338;2023-06-04T13:47:23;9.45;;;2.38;;
26858;SDS011;14429;48.346;16.338;2023-06-04T13:49:49;2.92;;;2.10;;
26858;SDS011;14429;48.346;16.338;2023-06-04T13:52:14;8.20;;;2.22;;
26858;SDS011;14429;48.346;16.338;2023-06-04T13:54:40;4.60;;;2.15;;
26858;SDS011;14429;48.346;16.338;2023-06-04T13:57:05;2.80;;;1.83;;
26858;SDS011;14429;48.346;16.338;2023-06-04T13:59:31;5.50;;;3.30;;
26858;SDS011;14429;48.346;16.338;2023-06-04T14:01:56;5.93;;;2.00;;
26858;SDS011;14429;48.346;16.338;2023-06-04T14:04:23;3.10;;;2.08;;
26858;SDS011;14429;48.346;16.338;2023-06-04T14:06:49;3.28;;;2.15;;
26858;SDS011;14429;48.346;16.338;2023-06-04T14:09:14;5.22;;;2.30;;
26858;SDS011;14429;48.346;16.338;2023-06-04T14:11:39;6.35;;;2.60;;
26858;SDS011;14429;48.346;16.338;2023-06-04T14:14:05;3.00;;;1.90;;
26858;SDS011;14429;48.346;16.338;2023-06-04T14:16:32;3.45;;;1.83;;
26858;SDS011;14429;48.346;16.338;2023-06-04T14:18:58;1.90;;;1.50;;
26858;SDS011;14429;48.346;16.338;2023-06-04T14:21:24;4.88;;;1.92;;
26858;SDS011;14429;48.346;16.338;2023-06-04T14:23:51;2.42;;;1.90;;
26858;SDS011;14429;48.346;16.338;2023-06-04T14:26:17;3.00;;;2.25;;